createdAt,value
2022-11-16T00:01:24.210Z,2.05
2022-11-16T00:06:16.107Z,1.20
2022-11-16T00:11:09.227Z,0.90
2022-11-16T00:16:01.212Z,0.68
2022-11-16T00:20:52.864Z,0.60
2022-11-16T00:25:44.931Z,0.60
2022-11-16T00:30:37.037Z,0.40
2022-11-16T00:35:28.830Z,0.40
2022-11-16T00:40:22.448Z,0.57
2022-11-16T00:45:14.333Z,1.23
2022-11-16T00:50:06.482Z,2.10
2022-11-16T00:54:58.516Z,2.17
2022-11-16T00:59:50.268Z,2.42
2022-11-16T01:04:42.226Z,2.90
2022-11-16T01:09:34.181Z,2.78
2022-11-16T01:14:25.918Z,3.15
2022-11-16T01:19:17.669Z,4.47
2022-11-16T01:24:09.560Z,4.28
2022-11-16T01:29:01.408Z,5.22
2022-11-16T01:33:55.011Z,5.35
2022-11-16T01:38:47.606Z,4.13
2022-11-16T01:44:00.129Z,4.57
2022-11-16T01:48:58.523Z,4.18
2022-11-16T01:53:51.193Z,4.15
2022-11-16T01:58:43.175Z,4.03
2022-11-16T02:03:38.315Z,3.30
2022-11-16T02:08:54.722Z,3.30
2022-11-16T02:13:54.316Z,3.20
2022-11-16T02:18:58.957Z,2.40
2022-11-16T02:24:35.353Z,2.60
2022-11-16T02:29:37.736Z,2.53
2022-11-16T02:34:38.124Z,2.25
2022-11-16T02:39:32.531Z,2.95
2022-11-16T02:44:33.165Z,2.97
2022-11-16T02:49:28.124Z,2.10
2022-11-16T02:54:21.888Z,2.22
2022-11-16T02:59:17.654Z,1.20
2022-11-16T03:04:28.547Z,1.10
2022-11-16T03:09:31.190Z,0.80
2022-11-16T03:14:25.529Z,0.70
2022-11-16T03:19:23.984Z,0.60
2022-11-16T03:24:16.236Z,0.57
2022-11-16T03:29:16.281Z,0.40
2022-11-16T03:34:16.337Z,0.38
2022-11-16T03:39:16.866Z,0.47
2022-11-16T03:44:11.108Z,0.40
2022-11-16T03:49:02.951Z,0.30
2022-11-16T03:53:54.679Z,0.40
2022-11-16T03:58:46.342Z,0.20
2022-11-16T04:03:38.026Z,0.20
2022-11-16T04:08:48.747Z,0.28
2022-11-16T04:13:59.185Z,0.22
2022-11-16T04:19:09.701Z,0.35
2022-11-16T04:24:13.565Z,0.30
2022-11-16T04:29:05.184Z,0.30
2022-11-16T04:34:15.628Z,0.35
2022-11-16T04:39:07.765Z,0.40
2022-11-16T04:43:59.431Z,0.50
2022-11-16T04:48:50.993Z,0.40
2022-11-16T04:53:42.635Z,0.40
2022-11-16T04:58:34.506Z,0.50
2022-11-16T05:03:26.424Z,0.43
2022-11-16T05:08:18.011Z,0.50
2022-11-16T05:13:09.604Z,0.43
2022-11-16T05:18:01.166Z,0.50
2022-11-16T05:22:57.008Z,0.30
2022-11-16T05:27:48.800Z,0.32
2022-11-16T05:32:40.458Z,0.20
2022-11-16T05:37:32.096Z,0.20
2022-11-16T05:42:23.880Z,0.20
2022-11-16T05:47:15.457Z,0.25
2022-11-16T05:52:07.061Z,0.20
2022-11-16T05:56:58.659Z,0.55
2022-11-16T06:01:51.499Z,0.20
2022-11-16T06:06:43.197Z,0.28
2022-11-16T06:11:36.481Z,0.20
2022-11-16T06:16:28.095Z,0.43
2022-11-16T06:21:19.788Z,0.10
2022-11-16T06:26:11.892Z,0.10
2022-11-16T06:31:04.373Z,0.20
2022-11-16T06:35:56.080Z,0.30
2022-11-16T06:40:57.497Z,0.25
2022-11-16T06:45:54.497Z,0.20
2022-11-16T06:50:49.040Z,0.30
2022-11-16T06:55:40.604Z,0.40
2022-11-16T07:00:32.637Z,0.30
2022-11-16T07:05:24.311Z,0.40
2022-11-16T07:10:15.965Z,0.50
2022-11-16T07:15:08.122Z,0.50
2022-11-16T07:19:59.804Z,0.68
2022-11-16T07:24:51.515Z,0.80
2022-11-16T07:29:43.222Z,0.75
2022-11-16T07:34:34.952Z,0.90
2022-11-16T07:39:26.829Z,1.85
2022-11-16T07:44:18.610Z,0.90
2022-11-16T07:49:18.371Z,0.50
2022-11-16T07:54:16.389Z,0.90
2022-11-16T07:59:08.621Z,0.98
2022-11-16T08:04:03.266Z,0.60
2022-11-16T08:08:58.303Z,0.60
2022-11-16T08:13:51.014Z,0.70
2022-11-16T08:18:43.692Z,0.82
2022-11-16T08:23:36.222Z,0.60
2022-11-16T08:28:31.424Z,0.98
2022-11-16T08:33:25.327Z,1.92
2022-11-16T08:38:18.999Z,1.35
2022-11-16T08:43:11.837Z,1.30
2022-11-16T08:48:06.014Z,2.00
2022-11-16T08:52:58.787Z,0.80
2022-11-16T08:57:51.343Z,1.10
2022-11-16T09:02:44.831Z,0.73
2022-11-16T09:07:37.133Z,0.73
2022-11-16T09:12:28.867Z,1.70
2022-11-16T09:17:23.293Z,1.10
2022-11-16T09:22:15.151Z,1.15
2022-11-16T09:27:07.558Z,1.15
2022-11-16T09:31:59.417Z,1.38
2022-11-16T09:36:51.265Z,2.45
2022-11-16T09:41:58.138Z,1.90
2022-11-16T09:46:55.903Z,1.98
2022-11-16T09:51:52.552Z,1.20
2022-11-16T09:56:47.312Z,0.90
2022-11-16T10:01:42.437Z,1.83
2022-11-16T10:06:58.706Z,0.90
2022-11-16T10:12:13.688Z,1.05
2022-11-16T10:17:14.893Z,1.10
2022-11-16T10:22:25.451Z,1.50
2022-11-16T10:27:29.240Z,1.02
2022-11-16T10:32:28.804Z,1.05
2022-11-16T10:37:22.716Z,0.73
2022-11-16T10:42:24.524Z,0.60
2022-11-16T10:47:33.421Z,0.65
2022-11-16T10:52:26.294Z,0.60
2022-11-16T10:57:18.627Z,0.50
2022-11-16T11:02:25.373Z,0.50
2022-11-16T11:07:31.049Z,0.50
2022-11-16T11:12:40.468Z,0.80
2022-11-16T11:17:34.159Z,0.70
2022-11-16T11:22:26.642Z,0.50
2022-11-16T11:27:29.046Z,0.63
2022-11-16T11:32:24.530Z,0.40
2022-11-16T11:37:24.799Z,0.75
2022-11-16T11:42:16.678Z,0.20
2022-11-16T11:47:56.269Z,0.20
2022-11-16T11:52:38.111Z,0.20
2022-11-16T11:57:33.311Z,0.10
2022-11-16T12:02:56.359Z,0.20
2022-11-16T12:08:25.448Z,0.20
2022-11-16T12:18:50.172Z,0.10
2022-11-16T12:23:50.850Z,0.20
2022-11-16T12:28:44.923Z,0.20
2022-11-16T12:34:04.975Z,0.17
2022-11-16T12:38:59.523Z,0.15
2022-11-16T12:49:37.468Z,0.95
2022-11-16T12:54:52.481Z,0.40
2022-11-16T13:00:00.669Z,0.40
2022-11-16T13:04:58.575Z,0.10
2022-11-16T13:09:59.074Z,0.17
2022-11-16T13:14:54.700Z,0.20
2022-11-16T13:19:58.428Z,0.20
2022-11-16T13:24:58.757Z,0.57
2022-11-16T13:29:56.226Z,0.50
2022-11-16T13:34:49.303Z,0.50
2022-11-16T13:39:59.201Z,0.40
2022-11-16T13:44:51.827Z,0.73
2022-11-16T13:49:54.430Z,0.50
2022-11-16T13:54:55.491Z,0.40
2022-11-16T13:59:50.029Z,0.50
2022-11-16T14:04:55.947Z,0.40
2022-11-16T14:09:49.253Z,0.40
2022-11-16T14:15:13.533Z,0.43
2022-11-16T14:20:06.032Z,0.50
2022-11-16T14:25:07.523Z,0.40
2022-11-16T14:30:02.878Z,0.50
2022-11-16T14:34:57.184Z,0.50
2022-11-16T14:39:58.091Z,0.50
2022-11-16T14:44:50.727Z,0.30
2022-11-16T14:49:45.525Z,0.40
2022-11-16T14:55:01.956Z,0.30
2022-11-16T15:00:19.815Z,0.45
2022-11-16T15:05:22.968Z,0.30
2022-11-16T15:10:17.927Z,0.20
2022-11-16T15:15:14.797Z,0.20
2022-11-16T15:20:13.765Z,0.30
2022-11-16T15:25:05.928Z,0.30
2022-11-16T15:30:01.214Z,0.20
2022-11-16T15:34:54.591Z,0.50
2022-11-16T15:39:46.372Z,0.35
2022-11-16T15:44:39.322Z,0.30
2022-11-16T15:49:38.341Z,0.20
2022-11-16T15:54:55.061Z,0.30
2022-11-16T15:59:49.788Z,1.02
2022-11-16T16:04:42.131Z,0.20
2022-11-16T16:09:39.747Z,0.20
2022-11-16T16:14:31.798Z,0.30
2022-11-16T16:19:44.526Z,0.30
2022-11-16T16:24:42.523Z,0.40
2022-11-16T16:29:34.224Z,0.40
2022-11-16T16:34:25.845Z,0.70
2022-11-16T16:39:17.468Z,0.32
2022-11-16T16:44:14.888Z,0.30
2022-11-16T16:49:08.043Z,0.30
2022-11-16T16:53:59.959Z,0.50
2022-11-16T16:58:51.641Z,0.50
2022-11-16T17:03:43.257Z,0.50
2022-11-16T17:08:36.084Z,0.77
2022-11-16T17:13:27.683Z,1.42
2022-11-16T17:18:19.364Z,0.65
2022-11-16T17:23:11.018Z,0.68
2022-11-16T17:28:02.702Z,0.75
2022-11-16T17:32:54.441Z,0.60
2022-11-16T17:37:50.929Z,0.85
2022-11-16T17:42:43.189Z,1.73
2022-11-16T17:47:35.113Z,0.85
2022-11-16T17:52:27.083Z,0.80
2022-11-16T17:57:18.876Z,1.05
2022-11-16T18:02:11.748Z,0.90
2022-11-16T18:07:03.721Z,1.35
2022-11-16T18:11:55.662Z,1.88
2022-11-16T18:16:48.025Z,2.95
2022-11-16T18:21:41.211Z,1.75
2022-11-16T18:26:32.960Z,2.33
2022-11-16T18:31:25.066Z,7.93
2022-11-16T18:36:18.164Z,4.82
2022-11-16T18:41:12.607Z,4.30
2022-11-16T18:46:05.172Z,5.22
2022-11-16T18:51:04.564Z,3.85
2022-11-16T18:55:58.126Z,3.38
2022-11-16T19:00:50.484Z,6.10
2022-11-16T19:05:42.733Z,3.20
2022-11-16T19:10:40.582Z,3.17
2022-11-16T19:15:33.497Z,3.63
2022-11-16T19:20:25.186Z,3.10
2022-11-16T19:25:16.849Z,3.50
2022-11-16T19:30:09.152Z,3.47
2022-11-16T19:35:01.081Z,3.50
2022-11-16T19:39:52.811Z,3.88
2022-11-16T19:44:44.375Z,4.05
2022-11-16T19:49:36.128Z,4.38
2022-11-16T19:54:27.778Z,3.47
2022-11-16T19:59:19.370Z,2.63
2022-11-16T20:04:10.997Z,2.55
2022-11-16T20:09:08.891Z,5.07
2022-11-16T20:14:03.494Z,3.85
2022-11-16T20:18:55.732Z,2.92
2022-11-16T20:23:47.431Z,3.60
2022-11-16T20:28:40.780Z,4.22
2022-11-16T20:33:34.521Z,3.72
2022-11-16T20:38:26.251Z,4.72
2022-11-16T20:43:17.963Z,5.20
2022-11-16T20:48:09.599Z,4.30
2022-11-16T20:53:01.231Z,6.00
2022-11-16T20:57:52.995Z,5.40
2022-11-16T21:02:44.607Z,5.47
2022-11-16T21:07:36.300Z,6.20
2022-11-16T21:12:46.784Z,6.65
2022-11-16T21:17:38.421Z,6.50
2022-11-16T21:22:32.756Z,7.25
2022-11-16T21:27:24.626Z,5.68
2022-11-16T21:32:16.307Z,7.22
2022-11-16T21:37:08.242Z,6.43
2022-11-16T21:41:59.968Z,7.20
2022-11-16T21:46:51.679Z,7.05
2022-11-16T21:51:43.271Z,7.18
2022-11-16T21:56:34.918Z,7.35
2022-11-16T22:01:46.564Z,7.47
2022-11-16T22:06:57.241Z,6.72
2022-11-16T22:11:49.078Z,7.13
2022-11-16T22:16:40.731Z,6.97
2022-11-16T22:21:32.427Z,6.32
2022-11-16T22:26:23.994Z,6.63
2022-11-16T22:31:15.707Z,7.30
2022-11-16T22:36:11.854Z,6.30
2022-11-16T22:41:04.089Z,6.15
2022-11-16T22:46:00.272Z,6.80
2022-11-16T22:51:01.837Z,6.65
2022-11-16T22:55:53.516Z,6.45
2022-11-16T23:00:45.146Z,6.90
2022-11-16T23:05:36.723Z,7.72
2022-11-16T23:10:29.019Z,9.02
2022-11-16T23:15:48.807Z,7.75
2022-11-16T23:20:59.289Z,8.27
2022-11-16T23:26:09.977Z,8.95
2022-11-16T23:31:01.779Z,8.05
2022-11-16T23:35:53.342Z,7.47
2022-11-16T23:40:45.076Z,8.48
2022-11-16T23:45:37.086Z,7.90
2022-11-16T23:50:28.832Z,8.02
2022-11-16T23:55:20.803Z,8.77
